sensor_id;sensor_type;location;lat;lon;timestamp;P1;durP1;ratioP1;P2;durP2;ratioP2
33421;SDS011;19763;55.798;37.782;2022-12-26T00:00:11;2.45;;;1.17;;
33421;SDS011;19763;55.798;37.782;2022-12-26T00:02:37;3.42;;;1.40;;
33421;SDS011;19763;55.798;37.782;2022-12-26T00:05:03;1.98;;;1.35;;
33421;SDS011;19763;55.798;37.782;2022-12-26T00:07:29;2.03;;;1.30;;
33421;SDS011;19763;55.798;37.782;2022-12-26T00:09:54;2.25;;;1.20;;
33421;SDS011;19763;55.798;37.782;2022-12-26T00:12:20;4.80;;;1.20;;
33421;SDS011;19763;55.798;37.782;2022-12-26T00:14:45;3.28;;;1.20;;
33421;SDS011;19763;55.798;37.782;2022-12-26T00:17:11;3.80;;;1.35;;
33421;SDS011;19763;55.798;37.782;2022-12-26T00:19:37;2.08;;;1.13;;
33421;SDS011;19763;55.798;37.782;2022-12-26T00:22:03;2.47;;;1.50;;
33421;SDS011;19763;55.798;37.782;2022-12-26T00:24:29;4.28;;;1.33;;
33421;SDS011;19763;55.798;37.782;2022-12-26T00:26:54;2.85;;;1.50;;
33421;SDS011;19763;55.798;37.782;2022-12-26T00:29:20;1.88;;;1.27;;
33421;SDS011;19763;55.798;37.782;2022-12-26T00:31:46;1.65;;;1.20;;
33421;SDS011;19763;55.798;37.782;2022-12-26T00:34:13;2.33;;;1.40;;
33421;SDS011;19763;55.798;37.782;2022-12-26T00:36:39;1.65;;;1.17;;
33421;SDS011;19763;55.798;37.782;2022-12-26T00:39:05;1.25;;;1.13;;
33421;SDS011;19763;55.798;37.782;2022-12-26T00:41:31;1.58;;;1.30;;
33421;SDS011;19763;55.798;37.782;2022-12-26T00:43:57;2.65;;;1.30;;
33421;SDS011;19763;55.798;37.782;2022-12-26T00:46:23;1.75;;;1.10;;
33421;SDS011;19763;55.798;37.782;2022-12-26T00:48:50;2.15;;;1.30;;
33421;SDS011;19763;55.798;37.782;2022-12-26T00:51:15;1.95;;;1.10;;
33421;SDS011;19763;55.798;37.782;2022-12-26T00:53:41;1.77;;;1.40;;
33421;SDS011;19763;55.798;37.782;2022-12-26T00:56:08;1.75;;;1.15;;
33421;SDS011;19763;55.798;37.782;2022-12-26T00:58:34;3.50;;;1.90;;
33421;SDS011;19763;55.798;37.782;2022-12-26T01:01:07;1.80;;;1.40;;
33421;SDS011;19763;55.798;37.782;2022-12-26T01:03:38;2.45;;;1.40;;
33421;SDS011;19763;55.798;37.782;2022-12-26T01:06:04;2.42;;;1.40;;
33421;SDS011;19763;55.798;37.782;2022-12-26T01:08:30;5.40;;;1.30;;
33421;SDS011;19763;55.798;37.782;2022-12-26T01:10:55;2.35;;;1.30;;
33421;SDS011;19763;55.798;37.782;2022-12-26T01:13:21;2.53;;;1.00;;
33421;SDS011;19763;55.798;37.782;2022-12-26T01:15:50;1.88;;;0.93;;
33421;SDS011;19763;55.798;37.782;2022-12-26T01:18:17;2.05;;;1.20;;
33421;SDS011;19763;55.798;37.782;2022-12-26T01:20:43;1.58;;;1.10;;
33421;SDS011;19763;55.798;37.782;2022-12-26T01:23:09;2.72;;;0.93;;
33421;SDS011;19763;55.798;37.782;2022-12-26T01:25:34;2.70;;;1.30;;
33421;SDS011;19763;55.798;37.782;2022-12-26T01:28:00;1.75;;;1.05;;
33421;SDS011;19763;55.798;37.782;2022-12-26T01:30:25;1.83;;;1.38;;
33421;SDS011;19763;55.798;37.782;2022-12-26T01:32:51;2.28;;;1.20;;
33421;SDS011;19763;55.798;37.782;2022-12-26T01:35:16;2.22;;;1.45;;
33421;SDS011;19763;55.798;37.782;2022-12-26T01:37:42;2.08;;;1.00;;
33421;SDS011;19763;55.798;37.782;2022-12-26T01:40:09;1.73;;;0.95;;
33421;SDS011;19763;55.798;37.782;2022-12-26T01:42:39;1.65;;;0.70;;
33421;SDS011;19763;55.798;37.782;2022-12-26T01:53:27;1.50;;;1.00;;
33421;SDS011;19763;55.798;37.782;2022-12-26T01:55:58;2.35;;;1.02;;
33421;SDS011;19763;55.798;37.782;2022-12-26T01:58:31;1.40;;;0.80;;
33421;SDS011;19763;55.798;37.782;2022-12-26T02:01:02;0.80;;;0.75;;
33421;SDS011;19763;55.798;37.782;2022-12-26T02:03:30;1.73;;;1.13;;
33421;SDS011;19763;55.798;37.782;2022-12-26T02:06:15;0.98;;;0.88;;
33421;SDS011;19763;55.798;37.782;2022-12-26T02:08:41;1.35;;;0.90;;
33421;SDS011;19763;55.798;37.782;2022-12-26T02:14:06;1.70;;;1.00;;
33421;SDS011;19763;55.798;37.782;2022-12-26T02:16:33;1.45;;;0.80;;
33421;SDS011;19763;55.798;37.782;2022-12-26T02:19:00;1.42;;;0.80;;
33421;SDS011;19763;55.798;37.782;2022-12-26T02:27:03;2.13;;;0.88;;
33421;SDS011;19763;55.798;37.782;2022-12-26T02:32:40;1.63;;;1.20;;
33421;SDS011;19763;55.798;37.782;2022-12-26T02:52:30;2.55;;;1.20;;
33421;SDS011;19763;55.798;37.782;2022-12-26T02:55:30;1.65;;;1.08;;
33421;SDS011;19763;55.798;37.782;2022-12-26T03:01:03;2.25;;;1.30;;
33421;SDS011;19763;55.798;37.782;2022-12-26T03:03:51;1.67;;;1.20;;
33421;SDS011;19763;55.798;37.782;2022-12-26T03:06:39;1.58;;;1.23;;
33421;SDS011;19763;55.798;37.782;2022-12-26T03:09:28;1.73;;;1.30;;
33421;SDS011;19763;55.798;37.782;2022-12-26T03:15:04;1.25;;;1.15;;
33421;SDS011;19763;55.798;37.782;2022-12-26T03:20:02;2.63;;;1.38;;
33421;SDS011;19763;55.798;37.782;2022-12-26T03:22:30;2.95;;;1.20;;
33421;SDS011;19763;55.798;37.782;2022-12-26T03:24:59;1.73;;;1.20;;
33421;SDS011;19763;55.798;37.782;2022-12-26T03:27:46;2.00;;;1.10;;
33421;SDS011;19763;55.798;37.782;2022-12-26T03:30:12;1.15;;;1.00;;
33421;SDS011;19763;55.798;37.782;2022-12-26T03:32:56;1.45;;;0.95;;
33421;SDS011;19763;55.798;37.782;2022-12-26T03:35:22;4.32;;;1.25;;
33421;SDS011;19763;55.798;37.782;2022-12-26T03:38:24;2.10;;;1.20;;
33421;SDS011;19763;55.798;37.782;2022-12-26T03:49:40;3.05;;;1.52;;
33421;SDS011;19763;55.798;37.782;2022-12-26T03:59:04;1.80;;;1.30;;
33421;SDS011;19763;55.798;37.782;2022-12-26T04:01:53;2.03;;;1.30;;
33421;SDS011;19763;55.798;37.782;2022-12-26T04:04:43;2.28;;;1.60;;
33421;SDS011;19763;55.798;37.782;2022-12-26T04:07:32;3.60;;;1.33;;
33421;SDS011;19763;55.798;37.782;2022-12-26T04:10:24;3.15;;;1.35;;
33421;SDS011;19763;55.798;37.782;2022-12-26T04:13:19;2.85;;;1.60;;
33421;SDS011;19763;55.798;37.782;2022-12-26T04:16:11;2.20;;;1.50;;
33421;SDS011;19763;55.798;37.782;2022-12-26T04:19:26;2.25;;;1.48;;
33421;SDS011;19763;55.798;37.782;2022-12-26T04:25:05;2.63;;;1.58;;
33421;SDS011;19763;55.798;37.782;2022-12-26T04:27:55;4.20;;;1.77;;
33421;SDS011;19763;55.798;37.782;2022-12-26T04:30:40;2.10;;;1.60;;
33421;SDS011;19763;55.798;37.782;2022-12-26T04:33:34;3.20;;;1.70;;
33421;SDS011;19763;55.798;37.782;2022-12-26T04:36:29;2.10;;;1.38;;
33421;SDS011;19763;55.798;37.782;2022-12-26T04:39:17;2.90;;;1.33;;
33421;SDS011;19763;55.798;37.782;2022-12-26T04:45:12;1.95;;;1.42;;
33421;SDS011;19763;55.798;37.782;2022-12-26T04:47:39;2.20;;;1.45;;
33421;SDS011;19763;55.798;37.782;2022-12-26T04:50:24;2.20;;;1.50;;
33421;SDS011;19763;55.798;37.782;2022-12-26T04:52:50;2.47;;;1.50;;
33421;SDS011;19763;55.798;37.782;2022-12-26T04:55:29;2.92;;;1.67;;
33421;SDS011;19763;55.798;37.782;2022-12-26T04:57:56;4.30;;;1.75;;
33421;SDS011;19763;55.798;37.782;2022-12-26T05:00:23;2.28;;;1.60;;
33421;SDS011;19763;55.798;37.782;2022-12-26T05:02:50;2.60;;;1.75;;
33421;SDS011;19763;55.798;37.782;2022-12-26T05:05:37;4.15;;;1.85;;
33421;SDS011;19763;55.798;37.782;2022-12-26T05:08:25;3.33;;;1.52;;
33421;SDS011;19763;55.798;37.782;2022-12-26T05:11:15;3.95;;;1.60;;
33421;SDS011;19763;55.798;37.782;2022-12-26T05:13:41;2.63;;;1.45;;
33421;SDS011;19763;55.798;37.782;2022-12-26T05:16:06;2.13;;;1.40;;
33421;SDS011;19763;55.798;37.782;2022-12-26T05:18:51;1.42;;;1.20;;
33421;SDS011;19763;55.798;37.782;2022-12-26T05:21:35;3.30;;;1.40;;
33421;SDS011;19763;55.798;37.782;2022-12-26T05:24:20;3.10;;;1.45;;
33421;SDS011;19763;55.798;37.782;2022-12-26T05:27:04;3.38;;;1.67;;
33421;SDS011;19763;55.798;37.782;2022-12-26T05:29:51;1.90;;;1.40;;
33421;SDS011;19763;55.798;37.782;2022-12-26T05:32:17;2.33;;;1.60;;
33421;SDS011;19763;55.798;37.782;2022-12-26T05:35:01;2.90;;;1.63;;
33421;SDS011;19763;55.798;37.782;2022-12-26T05:37:27;3.05;;;1.50;;
33421;SDS011;19763;55.798;37.782;2022-12-26T05:39:53;2.45;;;1.70;;
33421;SDS011;19763;55.798;37.782;2022-12-26T05:42:18;3.88;;;1.50;;
33421;SDS011;19763;55.798;37.782;2022-12-26T05:44:44;2.40;;;1.67;;
33421;SDS011;19763;55.798;37.782;2022-12-26T05:47:11;4.78;;;2.00;;
33421;SDS011;19763;55.798;37.782;2022-12-26T05:49:36;2.33;;;1.70;;
33421;SDS011;19763;55.798;37.782;2022-12-26T05:52:02;3.30;;;1.90;;
33421;SDS011;19763;55.798;37.782;2022-12-26T05:54:27;5.75;;;2.83;;
33421;SDS011;19763;55.798;37.782;2022-12-26T05:56:53;2.70;;;1.90;;
33421;SDS011;19763;55.798;37.782;2022-12-26T05:59:19;4.45;;;1.95;;
33421;SDS011;19763;55.798;37.782;2022-12-26T06:01:44;1.67;;;1.58;;
33421;SDS011;19763;55.798;37.782;2022-12-26T06:04:10;3.67;;;1.80;;
33421;SDS011;19763;55.798;37.782;2022-12-26T06:06:35;4.47;;;1.85;;
33421;SDS011;19763;55.798;37.782;2022-12-26T06:09:01;3.78;;;1.80;;
33421;SDS011;19763;55.798;37.782;2022-12-26T06:11:26;3.72;;;1.85;;
33421;SDS011;19763;55.798;37.782;2022-12-26T06:13:52;4.60;;;1.75;;
33421;SDS011;19763;55.798;37.782;2022-12-26T06:16:19;4.13;;;2.10;;
33421;SDS011;19763;55.798;37.782;2022-12-26T06:18:44;3.67;;;1.80;;
33421;SDS011;19763;55.798;37.782;2022-12-26T06:21:11;5.68;;;2.03;;
33421;SDS011;19763;55.798;37.782;2022-12-26T06:23:39;3.25;;;1.67;;
33421;SDS011;19763;55.798;37.782;2022-12-26T06:26:05;4.05;;;1.95;;
33421;SDS011;19763;55.798;37.782;2022-12-26T06:28:33;3.17;;;1.80;;
33421;SDS011;19763;55.798;37.782;2022-12-26T06:31:05;4.43;;;2.00;;
33421;SDS011;19763;55.798;37.782;2022-12-26T06:33:38;2.63;;;1.92;;
33421;SDS011;19763;55.798;37.782;2022-12-26T06:36:14;2.17;;;1.63;;
33421;SDS011;19763;55.798;37.782;2022-12-26T06:38:41;4.55;;;2.30;;
33421;SDS011;19763;55.798;37.782;2022-12-26T06:41:08;3.83;;;1.88;;
33421;SDS011;19763;55.798;37.782;2022-12-26T06:43:35;3.63;;;1.92;;
33421;SDS011;19763;55.798;37.782;2022-12-26T06:46:02;4.78;;;2.40;;
33421;SDS011;19763;55.798;37.782;2022-12-26T06:48:29;5.75;;;2.58;;
33421;SDS011;19763;55.798;37.782;2022-12-26T06:50:55;5.88;;;2.40;;
33421;SDS011;19763;55.798;37.782;2022-12-26T06:53:21;5.40;;;2.50;;
33421;SDS011;19763;55.798;37.782;2022-12-26T06:55:48;3.00;;;1.75;;
33421;SDS011;19763;55.798;37.782;2022-12-26T06:58:14;4.03;;;1.88;;
33421;SDS011;19763;55.798;37.782;2022-12-26T07:00:40;4.75;;;1.90;;
33421;SDS011;19763;55.798;37.782;2022-12-26T07:03:06;3.08;;;1.80;;
33421;SDS011;19763;55.798;37.782;2022-12-26T07:05:34;4.30;;;2.20;;
33421;SDS011;19763;55.798;37.782;2022-12-26T07:08:00;2.67;;;1.73;;
33421;SDS011;19763;55.798;37.782;2022-12-26T07:10:25;3.47;;;2.05;;
33421;SDS011;19763;55.798;37.782;2022-12-26T07:12:51;5.40;;;1.80;;
33421;SDS011;19763;55.798;37.782;2022-12-26T07:15:17;3.42;;;1.60;;
33421;SDS011;19763;55.798;37.782;2022-12-26T07:17:42;4.70;;;1.95;;
33421;SDS011;19763;55.798;37.782;2022-12-26T07:20:08;3.05;;;1.60;;
33421;SDS011;19763;55.798;37.782;2022-12-26T07:22:34;3.33;;;1.70;;
33421;SDS011;19763;55.798;37.782;2022-12-26T07:25:00;2.70;;;1.80;;
33421;SDS011;19763;55.798;37.782;2022-12-26T07:27:25;2.10;;;1.70;;
33421;SDS011;19763;55.798;37.782;2022-12-26T07:29:51;3.65;;;1.67;;
33421;SDS011;19763;55.798;37.782;2022-12-26T07:32:16;2.92;;;1.48;;
33421;SDS011;19763;55.798;37.782;2022-12-26T07:34:42;4.10;;;1.80;;
33421;SDS011;19763;55.798;37.782;2022-12-26T07:37:07;6.32;;;1.92;;
33421;SDS011;19763;55.798;37.782;2022-12-26T07:39:33;2.33;;;1.58;;
33421;SDS011;19763;55.798;37.782;2022-12-26T07:42:01;6.28;;;1.98;;
33421;SDS011;19763;55.798;37.782;2022-12-26T07:44:27;2.80;;;2.03;;
33421;SDS011;19763;55.798;37.782;2022-12-26T07:46:55;2.08;;;1.73;;
33421;SDS011;19763;55.798;37.782;2022-12-26T07:49:21;5.47;;;1.95;;
33421;SDS011;19763;55.798;37.782;2022-12-26T07:51:47;2.63;;;1.95;;
33421;SDS011;19763;55.798;37.782;2022-12-26T07:54:14;2.30;;;1.80;;
33421;SDS011;19763;55.798;37.782;2022-12-26T07:56:40;2.38;;;1.77;;
33421;SDS011;19763;55.798;37.782;2022-12-26T07:59:06;4.05;;;2.30;;
33421;SDS011;19763;55.798;37.782;2022-12-26T08:01:32;2.92;;;2.15;;
33421;SDS011;19763;55.798;37.782;2022-12-26T08:03:58;3.50;;;1.98;;
33421;SDS011;19763;55.798;37.782;2022-12-26T08:06:23;3.60;;;2.03;;
33421;SDS011;19763;55.798;37.782;2022-12-26T08:08:49;3.47;;;2.17;;
33421;SDS011;19763;55.798;37.782;2022-12-26T08:11:20;2.88;;;2.00;;
33421;SDS011;19763;55.798;37.782;2022-12-26T08:13:47;2.78;;;1.80;;
33421;SDS011;19763;55.798;37.782;2022-12-26T08:16:13;5.75;;;2.22;;
33421;SDS011;19763;55.798;37.782;2022-12-26T08:18:40;4.03;;;2.38;;
33421;SDS011;19763;55.798;37.782;2022-12-26T08:21:07;4.43;;;2.10;;
33421;SDS011;19763;55.798;37.782;2022-12-26T08:23:33;9.98;;;2.75;;
33421;SDS011;19763;55.798;37.782;2022-12-26T08:26:03;3.25;;;2.25;;
33421;SDS011;19763;55.798;37.782;2022-12-26T08:28:30;3.15;;;2.30;;
33421;SDS011;19763;55.798;37.782;2022-12-26T08:30:55;3.67;;;2.40;;
33421;SDS011;19763;55.798;37.782;2022-12-26T08:33:21;3.30;;;2.53;;
33421;SDS011;19763;55.798;37.782;2022-12-26T08:35:46;4.40;;;2.67;;
33421;SDS011;19763;55.798;37.782;2022-12-26T08:38:12;4.55;;;2.22;;
33421;SDS011;19763;55.798;37.782;2022-12-26T08:40:37;3.60;;;2.75;;
33421;SDS011;19763;55.798;37.782;2022-12-26T08:43:03;3.17;;;2.38;;
33421;SDS011;19763;55.798;37.782;2022-12-26T08:45:29;3.97;;;2.50;;
33421;SDS011;19763;55.798;37.782;2022-12-26T08:47:55;8.65;;;2.58;;
33421;SDS011;19763;55.798;37.782;2022-12-26T08:50:22;3.63;;;2.53;;
33421;SDS011;19763;55.798;37.782;2022-12-26T08:52:47;3.92;;;2.80;;
33421;SDS011;19763;55.798;37.782;2022-12-26T08:55:13;6.20;;;2.78;;
33421;SDS011;19763;55.798;37.782;2022-12-26T08:57:39;4.57;;;2.30;;
33421;SDS011;19763;55.798;37.782;2022-12-26T09:00:04;4.80;;;2.50;;
33421;SDS011;19763;55.798;37.782;2022-12-26T09:02:31;3.10;;;2.47;;
33421;SDS011;19763;55.798;37.782;2022-12-26T09:04:57;6.45;;;2.70;;
33421;SDS011;19763;55.798;37.782;2022-12-26T09:07:22;5.38;;;2.92;;
33421;SDS011;19763;55.798;37.782;2022-12-26T09:09:49;3.13;;;2.30;;
33421;SDS011;19763;55.798;37.782;2022-12-26T09:12:14;3.60;;;2.42;;
33421;SDS011;19763;55.798;37.782;2022-12-26T09:14:40;4.40;;;2.40;;
33421;SDS011;19763;55.798;37.782;2022-12-26T09:17:05;4.13;;;2.90;;
33421;SDS011;19763;55.798;37.782;2022-12-26T09:19:31;3.28;;;2.65;;
33421;SDS011;19763;55.798;37.782;2022-12-26T09:21:57;2.78;;;2.47;;
33421;SDS011;19763;55.798;37.782;2022-12-26T09:24:42;3.65;;;2.90;;
33421;SDS011;19763;55.798;37.782;2022-12-26T09:27:08;4.00;;;3.30;;
33421;SDS011;19763;55.798;37.782;2022-12-26T09:29:34;6.03;;;3.13;;
33421;SDS011;19763;55.798;37.782;2022-12-26T09:32:02;5.47;;;2.70;;
33421;SDS011;19763;55.798;37.782;2022-12-26T09:34:28;8.27;;;3.03;;
33421;SDS011;19763;55.798;37.782;2022-12-26T09:36:53;3.10;;;2.50;;
33421;SDS011;19763;55.798;37.782;2022-12-26T09:39:19;4.88;;;3.00;;
33421;SDS011;19763;55.798;37.782;2022-12-26T09:47:05;3.95;;;3.03;;
33421;SDS011;19763;55.798;37.782;2022-12-26T09:49:44;3.83;;;2.70;;
33421;SDS011;19763;55.798;37.782;2022-12-26T09:52:21;3.72;;;2.90;;
33421;SDS011;19763;55.798;37.782;2022-12-26T09:54:58;5.45;;;3.28;;
33421;SDS011;19763;55.798;37.782;2022-12-26T09:57:39;4.57;;;3.22;;
33421;SDS011;19763;55.798;37.782;2022-12-26T10:00:18;5.43;;;3.60;;
33421;SDS011;19763;55.798;37.782;2022-12-26T10:02:50;6.75;;;3.55;;
33421;SDS011;19763;55.798;37.782;2022-12-26T10:05:19;4.97;;;3.55;;
33421;SDS011;19763;55.798;37.782;2022-12-26T10:07:49;5.20;;;3.30;;
33421;SDS011;19763;55.798;37.782;2022-12-26T10:13:09;6.32;;;4.00;;
33421;SDS011;19763;55.798;37.782;2022-12-26T10:15:44;6.03;;;4.40;;
33421;SDS011;19763;55.798;37.782;2022-12-26T10:34:09;7.57;;;4.72;;
33421;SDS011;19763;55.798;37.782;2022-12-26T10:36:50;7.10;;;4.72;;
33421;SDS011;19763;55.798;37.782;2022-12-26T10:39:35;6.40;;;4.65;;
33421;SDS011;19763;55.798;37.782;2022-12-26T10:42:09;8.43;;;5.18;;
33421;SDS011;19763;55.798;37.782;2022-12-26T10:44:42;8.65;;;4.60;;
33421;SDS011;19763;55.798;37.782;2022-12-26T10:49:45;5.85;;;4.22;;
33421;SDS011;19763;55.798;37.782;2022-12-26T10:52:11;7.20;;;4.85;;
33421;SDS011;19763;55.798;37.782;2022-12-26T10:54:39;6.85;;;4.53;;
33421;SDS011;19763;55.798;37.782;2022-12-26T10:57:05;8.05;;;4.50;;
33421;SDS011;19763;55.798;37.782;2022-12-26T10:59:46;7.35;;;4.55;;
33421;SDS011;19763;55.798;37.782;2022-12-26T11:02:24;5.03;;;4.38;;
33421;SDS011;19763;55.798;37.782;2022-12-26T11:05:05;6.07;;;4.30;;
33421;SDS011;19763;55.798;37.782;2022-12-26T11:07:32;4.70;;;3.72;;
33421;SDS011;19763;55.798;37.782;2022-12-26T11:10:06;5.00;;;3.88;;
33421;SDS011;19763;55.798;37.782;2022-12-26T11:12:52;5.80;;;4.28;;
33421;SDS011;19763;55.798;37.782;2022-12-26T11:17:48;6.13;;;4.55;;
33421;SDS011;19763;55.798;37.782;2022-12-26T11:22:42;4.32;;;3.83;;
33421;SDS011;19763;55.798;37.782;2022-12-26T11:27:35;7.82;;;3.95;;
33421;SDS011;19763;55.798;37.782;2022-12-26T11:32:43;5.35;;;3.88;;
33421;SDS011;19763;55.798;37.782;2022-12-26T11:35:16;6.68;;;3.85;;
33421;SDS011;19763;55.798;37.782;2022-12-26T11:37:43;5.37;;;4.30;;
33421;SDS011;19763;55.798;37.782;2022-12-26T11:40:18;6.88;;;4.30;;
33421;SDS011;19763;55.798;37.782;2022-12-26T11:42:49;7.68;;;4.55;;
33421;SDS011;19763;55.798;37.782;2022-12-26T11:45:20;5.82;;;4.32;;
33421;SDS011;19763;55.798;37.782;2022-12-26T11:47:50;5.30;;;4.07;;
33421;SDS011;19763;55.798;37.782;2022-12-26T11:50:22;7.27;;;5.70;;
33421;SDS011;19763;55.798;37.782;2022-12-26T11:52:52;5.63;;;4.38;;
33421;SDS011;19763;55.798;37.782;2022-12-26T12:00:42;6.38;;;3.50;;
33421;SDS011;19763;55.798;37.782;2022-12-26T12:03:20;4.93;;;4.13;;
33421;SDS011;19763;55.798;37.782;2022-12-26T12:09:08;9.13;;;4.57;;
33421;SDS011;19763;55.798;37.782;2022-12-26T12:11:47;6.25;;;3.42;;
33421;SDS011;19763;55.798;37.782;2022-12-26T12:20:02;4.32;;;3.88;;
33421;SDS011;19763;55.798;37.782;2022-12-26T12:25:21;6.55;;;4.68;;
33421;SDS011;19763;55.798;37.782;2022-12-26T12:36:06;5.13;;;4.03;;
33421;SDS011;19763;55.798;37.782;2022-12-26T12:46:48;6.03;;;4.18;;
33421;SDS011;19763;55.798;37.782;2022-12-26T13:02:41;7.23;;;4.57;;
33421;SDS011;19763;55.798;37.782;2022-12-26T13:08:03;7.65;;;4.97;;
33421;SDS011;19763;55.798;37.782;2022-12-26T13:10:51;8.45;;;5.30;;
33421;SDS011;19763;55.798;37.782;2022-12-26T13:16:21;7.25;;;5.30;;
33421;SDS011;19763;55.798;37.782;2022-12-26T13:18:55;9.75;;;5.55;;
33421;SDS011;19763;55.798;37.782;2022-12-26T13:21:24;8.68;;;5.85;;
33421;SDS011;19763;55.798;37.782;2022-12-26T13:23:55;10.40;;;6.40;;
33421;SDS011;19763;55.798;37.782;2022-12-26T13:26:46;7.90;;;6.05;;
33421;SDS011;19763;55.798;37.782;2022-12-26T13:32:12;9.65;;;5.07;;
33421;SDS011;19763;55.798;37.782;2022-12-26T13:34:47;10.52;;;6.13;;
33421;SDS011;19763;55.798;37.782;2022-12-26T13:40:05;7.88;;;5.43;;
33421;SDS011;19763;55.798;37.782;2022-12-26T13:55:48;7.20;;;4.03;;
33421;SDS011;19763;55.798;37.782;2022-12-26T13:58:39;6.03;;;4.65;;
33421;SDS011;19763;55.798;37.782;2022-12-26T14:13:01;6.15;;;5.00;;
33421;SDS011;19763;55.798;37.782;2022-12-26T14:15:35;8.55;;;5.05;;
33421;SDS011;19763;55.798;37.782;2022-12-26T14:26:47;6.60;;;4.80;;
33421;SDS011;19763;55.798;37.782;2022-12-26T14:29:47;5.93;;;4.50;;
33421;SDS011;19763;55.798;37.782;2022-12-26T14:37:49;8.45;;;4.68;;
33421;SDS011;19763;55.798;37.782;2022-12-26T14:40:34;7.50;;;4.53;;
33421;SDS011;19763;55.798;37.782;2022-12-26T14:43:25;7.82;;;4.68;;
33421;SDS011;19763;55.798;37.782;2022-12-26T14:45:53;6.43;;;4.50;;
33421;SDS011;19763;55.798;37.782;2022-12-26T14:50:48;5.95;;;4.90;;
33421;SDS011;19763;55.798;37.782;2022-12-26T14:55:51;6.53;;;4.82;;
33421;SDS011;19763;55.798;37.782;2022-12-26T15:00:50;6.20;;;4.45;;
33421;SDS011;19763;55.798;37.782;2022-12-26T15:05:45;6.93;;;4.90;;
33421;SDS011;19763;55.798;37.782;2022-12-26T15:08:21;8.65;;;5.47;;
33421;SDS011;19763;55.798;37.782;2022-12-26T15:13:59;7.18;;;5.18;;
33421;SDS011;19763;55.798;37.782;2022-12-26T15:22:29;7.47;;;5.22;;
33421;SDS011;19763;55.798;37.782;2022-12-26T15:31:14;8.95;;;5.80;;
33421;SDS011;19763;55.798;37.782;2022-12-26T15:36:19;9.32;;;6.15;;
33421;SDS011;19763;55.798;37.782;2022-12-26T15:48:37;9.25;;;6.70;;
33421;SDS011;19763;55.798;37.782;2022-12-26T15:51:15;9.33;;;5.63;;
33421;SDS011;19763;55.798;37.782;2022-12-26T15:54:10;6.97;;;5.65;;
33421;SDS011;19763;55.798;37.782;2022-12-26T15:59:50;9.60;;;6.90;;
33421;SDS011;19763;55.798;37.782;2022-12-26T16:04:52;9.38;;;6.93;;
33421;SDS011;19763;55.798;37.782;2022-12-26T16:07:44;10.98;;;6.57;;
33421;SDS011;19763;55.798;37.782;2022-12-26T16:15:53;8.70;;;6.05;;
33421;SDS011;19763;55.798;37.782;2022-12-26T16:20:50;8.48;;;6.15;;
33421;SDS011;19763;55.798;37.782;2022-12-26T16:23:37;15.98;;;6.60;;
33421;SDS011;19763;55.798;37.782;2022-12-26T16:26:04;6.60;;;5.55;;
33421;SDS011;19763;55.798;37.782;2022-12-26T16:31:00;10.00;;;7.30;;
33421;SDS011;19763;55.798;37.782;2022-12-26T16:33:29;9.25;;;6.65;;
33421;SDS011;19763;55.798;37.782;2022-12-26T16:35:58;8.63;;;6.28;;
33421;SDS011;19763;55.798;37.782;2022-12-26T16:38:27;11.00;;;7.50;;
33421;SDS011;19763;55.798;37.782;2022-12-26T16:40:54;9.23;;;6.85;;
33421;SDS011;19763;55.798;37.782;2022-12-26T16:45:54;9.35;;;7.40;;
33421;SDS011;19763;55.798;37.782;2022-12-26T16:48:25;7.30;;;6.53;;
33421;SDS011;19763;55.798;37.782;2022-12-26T16:50:56;9.15;;;7.50;;
33421;SDS011;19763;55.798;37.782;2022-12-26T16:53:40;11.23;;;8.20;;
33421;SDS011;19763;55.798;37.782;2022-12-26T16:56:28;9.25;;;5.93;;
33421;SDS011;19763;55.798;37.782;2022-12-26T17:01:28;8.27;;;6.60;;
33421;SDS011;19763;55.798;37.782;2022-12-26T17:03:55;9.70;;;7.00;;
33421;SDS011;19763;55.798;37.782;2022-12-26T17:06:29;10.07;;;6.53;;
33421;SDS011;19763;55.798;37.782;2022-12-26T17:09:03;7.50;;;6.57;;
33421;SDS011;19763;55.798;37.782;2022-12-26T17:11:33;8.13;;;6.97;;
33421;SDS011;19763;55.798;37.782;2022-12-26T17:14:02;8.00;;;7.20;;
33421;SDS011;19763;55.798;37.782;2022-12-26T17:16:30;7.60;;;6.68;;
33421;SDS011;19763;55.798;37.782;2022-12-26T17:19:19;7.85;;;5.95;;
33421;SDS011;19763;55.798;37.782;2022-12-26T17:27:38;8.35;;;5.65;;
33421;SDS011;19763;55.798;37.782;2022-12-26T17:32:50;6.65;;;4.38;;
33421;SDS011;19763;55.798;37.782;2022-12-26T17:35:21;7.22;;;5.22;;
33421;SDS011;19763;55.798;37.782;2022-12-26T17:38:11;10.63;;;6.28;;
33421;SDS011;19763;55.798;37.782;2022-12-26T17:40:42;6.20;;;4.40;;
33421;SDS011;19763;55.798;37.782;2022-12-26T17:45:37;8.98;;;4.65;;
33421;SDS011;19763;55.798;37.782;2022-12-26T17:48:04;6.55;;;4.18;;
33421;SDS011;19763;55.798;37.782;2022-12-26T17:50:32;4.07;;;3.30;;
33421;SDS011;19763;55.798;37.782;2022-12-26T17:53:06;4.05;;;3.20;;
33421;SDS011;19763;55.798;37.782;2022-12-26T17:55:41;6.68;;;3.80;;
33421;SDS011;19763;55.798;37.782;2022-12-26T17:58:09;6.07;;;3.40;;
33421;SDS011;19763;55.798;37.782;2022-12-26T18:00:36;4.10;;;3.08;;
33421;SDS011;19763;55.798;37.782;2022-12-26T18:03:02;7.38;;;5.00;;
33421;SDS011;19763;55.798;37.782;2022-12-26T18:05:28;5.32;;;2.85;;
33421;SDS011;19763;55.798;37.782;2022-12-26T18:07:54;4.15;;;3.22;;
33421;SDS011;19763;55.798;37.782;2022-12-26T18:10:25;4.32;;;3.13;;
33421;SDS011;19763;55.798;37.782;2022-12-26T18:12:54;4.63;;;3.50;;
33421;SDS011;19763;55.798;37.782;2022-12-26T18:15:20;5.05;;;3.45;;
33421;SDS011;19763;55.798;37.782;2022-12-26T18:17:47;4.35;;;2.78;;
33421;SDS011;19763;55.798;37.782;2022-12-26T18:22:44;4.32;;;3.00;;
33421;SDS011;19763;55.798;37.782;2022-12-26T18:25:12;3.97;;;2.45;;
33421;SDS011;19763;55.798;37.782;2022-12-26T18:27:39;6.32;;;3.90;;
33421;SDS011;19763;55.798;37.782;2022-12-26T18:30:06;4.93;;;3.17;;
33421;SDS011;19763;55.798;37.782;2022-12-26T18:32:39;6.68;;;3.63;;
33421;SDS011;19763;55.798;37.782;2022-12-26T18:35:04;7.82;;;3.53;;
33421;SDS011;19763;55.798;37.782;2022-12-26T18:37:30;6.57;;;3.35;;
33421;SDS011;19763;55.798;37.782;2022-12-26T18:39:56;4.57;;;3.20;;
33421;SDS011;19763;55.798;37.782;2022-12-26T18:42:22;3.95;;;3.00;;
33421;SDS011;19763;55.798;37.782;2022-12-26T18:44:49;5.00;;;3.40;;
33421;SDS011;19763;55.798;37.782;2022-12-26T18:47:15;5.32;;;3.22;;
33421;SDS011;19763;55.798;37.782;2022-12-26T18:49:43;5.05;;;2.95;;
33421;SDS011;19763;55.798;37.782;2022-12-26T18:52:09;3.50;;;3.03;;
33421;SDS011;19763;55.798;37.782;2022-12-26T18:54:35;3.28;;;2.97;;
33421;SDS011;19763;55.798;37.782;2022-12-26T18:57:04;4.13;;;3.05;;
33421;SDS011;19763;55.798;37.782;2022-12-26T18:59:32;3.87;;;2.97;;
33421;SDS011;19763;55.798;37.782;2022-12-26T19:01:58;3.80;;;3.08;;
33421;SDS011;19763;55.798;37.782;2022-12-26T19:04:23;5.68;;;3.63;;
33421;SDS011;19763;55.798;37.782;2022-12-26T19:06:49;3.95;;;3.47;;
33421;SDS011;19763;55.798;37.782;2022-12-26T19:09:15;5.32;;;3.90;;
33421;SDS011;19763;55.798;37.782;2022-12-26T19:11:41;4.20;;;3.50;;
33421;SDS011;19763;55.798;37.782;2022-12-26T19:14:07;4.70;;;3.28;;
33421;SDS011;19763;55.798;37.782;2022-12-26T19:16:40;7.40;;;4.00;;
33421;SDS011;19763;55.798;37.782;2022-12-26T19:19:06;4.95;;;4.15;;
33421;SDS011;19763;55.798;37.782;2022-12-26T19:21:31;4.65;;;3.60;;
33421;SDS011;19763;55.798;37.782;2022-12-26T19:23:57;6.03;;;3.58;;
33421;SDS011;19763;55.798;37.782;2022-12-26T19:26:22;9.02;;;3.78;;
33421;SDS011;19763;55.798;37.782;2022-12-26T19:28:51;4.53;;;3.47;;